sensor_id;sensor_type;location;lat;lon;timestamp;temperature;humidity
10278;DHT22;5184;51.376;7.148;2024-02-26T00:01:18;5.30;99.90
10278;DHT22;5184;51.376;7.148;2024-02-26T00:03:45;5.20;99.90
10278;DHT22;5184;51.376;7.148;2024-02-26T00:06:12;5.20;99.90
10278;DHT22;5184;51.376;7.148;2024-02-26T00:08:39;5.30;99.90
10278;DHT22;5184;51.376;7.148;2024-02-26T00:11:06;5.30;99.90
10278;DHT22;5184;51.376;7.148;2024-02-26T00:13:34;5.30;99.90
10278;DHT22;5184;51.376;7.148;2024-02-26T00:16:01;5.30;99.90
10278;DHT22;5184;51.376;7.148;2024-02-26T00:18:28;5.30;99.90
10278;DHT22;5184;51.376;7.148;2024-02-26T00:20:56;5.30;99.90
10278;DHT22;5184;51.376;7.148;2024-02-26T00:23:23;5.30;99.90
10278;DHT22;5184;51.376;7.148;2024-02-26T00:25:50;5.30;99.90
10278;DHT22;5184;51.376;7.148;2024-02-26T00:28:17;5.30;99.90
10278;DHT22;5184;51.376;7.148;2024-02-26T00:30:44;5.30;99.90
10278;DHT22;5184;51.376;7.148;2024-02-26T00:33:10;5.30;99.90
10278;DHT22;5184;51.376;7.148;2024-02-26T00:35:37;5.30;99.90
10278;DHT22;5184;51.376;7.148;2024-02-26T00:38:03;5.20;99.90
10278;DHT22;5184;51.376;7.148;2024-02-26T00:40:30;5.20;99.90
10278;DHT22;5184;51.376;7.148;2024-02-26T00:42:57;5.10;99.90
10278;DHT22;5184;51.376;7.148;2024-02-26T00:45:23;5.10;99.90
10278;DHT22;5184;51.376;7.148;2024-02-26T00:47:51;5.20;99.90
10278;DHT22;5184;51.376;7.148;2024-02-26T00:50:18;5.10;99.90
10278;DHT22;5184;51.376;7.148;2024-02-26T00:52:45;5.10;99.90
10278;DHT22;5184;51.376;7.148;2024-02-26T00:55:13;5.10;99.90
10278;DHT22;5184;51.376;7.148;2024-02-26T00:57:40;5.00;99.90
10278;DHT22;5184;51.376;7.148;2024-02-26T01:00:07;5.00;99.90
10278;DHT22;5184;51.376;7.148;2024-02-26T01:02:35;5.00;99.90
10278;DHT22;5184;51.376;7.148;2024-02-26T01:05:01;5.00;99.90
10278;DHT22;5184;51.376;7.148;2024-02-26T01:07:28;5.10;99.90
10278;DHT22;5184;51.376;7.148;2024-02-26T01:09:55;5.10;99.90
10278;DHT22;5184;51.376;7.148;2024-02-26T01:12:22;5.10;99.90
10278;DHT22;5184;51.376;7.148;2024-02-26T01:14:49;5.10;99.90
10278;DHT22;5184;51.376;7.148;2024-02-26T01:17:17;5.10;99.90
10278;DHT22;5184;51.376;7.148;2024-02-26T01:19:44;5.10;99.90
10278;DHT22;5184;51.376;7.148;2024-02-26T01:22:11;5.10;99.90
10278;DHT22;5184;51.376;7.148;2024-02-26T01:24:39;5.00;99.90
10278;DHT22;5184;51.376;7.148;2024-02-26T01:27:06;5.00;99.90
10278;DHT22;5184;51.376;7.148;2024-02-26T01:29:33;5.00;99.90
10278;DHT22;5184;51.376;7.148;2024-02-26T01:31:59;5.00;99.90
10278;DHT22;5184;51.376;7.148;2024-02-26T01:34:26;5.00;99.90
10278;DHT22;5184;51.376;7.148;2024-02-26T01:36:53;5.00;99.90
10278;DHT22;5184;51.376;7.148;2024-02-26T01:39:19;5.00;99.90
10278;DHT22;5184;51.376;7.148;2024-02-26T01:41:46;5.00;99.90
10278;DHT22;5184;51.376;7.148;2024-02-26T01:44:12;5.00;99.90
10278;DHT22;5184;51.376;7.148;2024-02-26T01:46:39;5.00;99.90
10278;DHT22;5184;51.376;7.148;2024-02-26T01:49:06;5.00;99.90
10278;DHT22;5184;51.376;7.148;2024-02-26T01:51:33;5.00;99.90
10278;DHT22;5184;51.376;7.148;2024-02-26T01:54:00;5.00;99.90
10278;DHT22;5184;51.376;7.148;2024-02-26T01:56:27;5.00;99.90
10278;DHT22;5184;51.376;7.148;2024-02-26T01:58:53;5.00;99.90
10278;DHT22;5184;51.376;7.148;2024-02-26T02:01:20;5.00;99.90
10278;DHT22;5184;51.376;7.148;2024-02-26T02:03:47;4.90;99.90
10278;DHT22;5184;51.376;7.148;2024-02-26T02:06:13;4.90;99.90
10278;DHT22;5184;51.376;7.148;2024-02-26T02:08:41;4.90;99.90
10278;DHT22;5184;51.376;7.148;2024-02-26T02:11:08;5.00;99.90
10278;DHT22;5184;51.376;7.148;2024-02-26T02:13:35;4.90;99.90
10278;DHT22;5184;51.376;7.148;2024-02-26T02:16:03;4.90;99.90
10278;DHT22;5184;51.376;7.148;2024-02-26T02:18:30;4.90;99.90
10278;DHT22;5184;51.376;7.148;2024-02-26T02:20:56;4.90;99.90
10278;DHT22;5184;51.376;7.148;2024-02-26T02:23:23;5.50;99.90
10278;DHT22;5184;51.376;7.148;2024-02-26T02:25:50;5.00;99.90
10278;DHT22;5184;51.376;7.148;2024-02-26T02:28:17;5.00;99.90
10278;DHT22;5184;51.376;7.148;2024-02-26T02:30:43;5.00;99.90
10278;DHT22;5184;51.376;7.148;2024-02-26T02:33:10;5.00;99.90
10278;DHT22;5184;51.376;7.148;2024-02-26T02:35:36;5.00;99.90
10278;DHT22;5184;51.376;7.148;2024-02-26T02:38:03;4.70;99.90
10278;DHT22;5184;51.376;7.148;2024-02-26T02:40:30;4.90;99.90
10278;DHT22;5184;51.376;7.148;2024-02-26T02:42:56;4.90;99.90
10278;DHT22;5184;51.376;7.148;2024-02-26T02:45:23;4.90;99.90
10278;DHT22;5184;51.376;7.148;2024-02-26T02:47:50;4.90;99.90
10278;DHT22;5184;51.376;7.148;2024-02-26T02:50:16;4.90;99.90
10278;DHT22;5184;51.376;7.148;2024-02-26T02:52:43;5.00;99.90
10278;DHT22;5184;51.376;7.148;2024-02-26T02:55:11;5.00;99.90
10278;DHT22;5184;51.376;7.148;2024-02-26T02:57:37;5.00;99.90
10278;DHT22;5184;51.376;7.148;2024-02-26T03:00:05;5.00;99.90
10278;DHT22;5184;51.376;7.148;2024-02-26T03:02:31;5.00;99.90
10278;DHT22;5184;51.376;7.148;2024-02-26T03:04:59;5.00;99.90
10278;DHT22;5184;51.376;7.148;2024-02-26T03:07:26;5.00;99.90
10278;DHT22;5184;51.376;7.148;2024-02-26T03:09:54;5.00;99.90
10278;DHT22;5184;51.376;7.148;2024-02-26T03:12:21;5.00;99.90
10278;DHT22;5184;51.376;7.148;2024-02-26T03:14:48;5.00;99.90
10278;DHT22;5184;51.376;7.148;2024-02-26T03:17:16;5.00;99.90
10278;DHT22;5184;51.376;7.148;2024-02-26T03:19:44;5.00;99.90
10278;DHT22;5184;51.376;7.148;2024-02-26T03:22:11;4.90;99.90
10278;DHT22;5184;51.376;7.148;2024-02-26T03:24:38;4.90;99.90
10278;DHT22;5184;51.376;7.148;2024-02-26T03:27:06;4.90;99.90
10278;DHT22;5184;51.376;7.148;2024-02-26T03:29:33;4.90;99.90
10278;DHT22;5184;51.376;7.148;2024-02-26T03:32:01;4.90;99.90
10278;DHT22;5184;51.376;7.148;2024-02-26T03:34:28;4.90;99.90
10278;DHT22;5184;51.376;7.148;2024-02-26T03:36:55;4.80;99.90
10278;DHT22;5184;51.376;7.148;2024-02-26T03:39:23;4.50;99.90
10278;DHT22;5184;51.376;7.148;2024-02-26T03:41:50;4.80;99.90
10278;DHT22;5184;51.376;7.148;2024-02-26T03:44:17;4.80;99.90
10278;DHT22;5184;51.376;7.148;2024-02-26T03:46:43;4.80;99.90
10278;DHT22;5184;51.376;7.148;2024-02-26T03:49:10;4.70;99.90
10278;DHT22;5184;51.376;7.148;2024-02-26T03:51:37;4.70;99.90
10278;DHT22;5184;51.376;7.148;2024-02-26T03:54:03;4.70;99.90
10278;DHT22;5184;51.376;7.148;2024-02-26T03:56:30;4.70;99.90
10278;DHT22;5184;51.376;7.148;2024-02-26T03:58:56;4.70;99.90
10278;DHT22;5184;51.376;7.148;2024-02-26T04:01:23;4.70;99.90
10278;DHT22;5184;51.376;7.148;2024-02-26T04:03:49;4.70;99.90
10278;DHT22;5184;51.376;7.148;2024-02-26T04:06:16;4.70;99.90
10278;DHT22;5184;51.376;7.148;2024-02-26T04:08:43;4.60;99.90
10278;DHT22;5184;51.376;7.148;2024-02-26T04:11:10;4.60;99.90
10278;DHT22;5184;51.376;7.148;2024-02-26T04:13:36;4.70;99.90
10278;DHT22;5184;51.376;7.148;2024-02-26T04:16:05;4.60;99.90
10278;DHT22;5184;51.376;7.148;2024-02-26T04:18:32;4.60;99.90
10278;DHT22;5184;51.376;7.148;2024-02-26T04:20:59;4.60;99.90
10278;DHT22;5184;51.376;7.148;2024-02-26T04:23:26;4.60;99.90
10278;DHT22;5184;51.376;7.148;2024-02-26T04:25:53;4.60;99.90
10278;DHT22;5184;51.376;7.148;2024-02-26T04:28:19;4.50;99.90
10278;DHT22;5184;51.376;7.148;2024-02-26T04:30:47;4.50;99.90
10278;DHT22;5184;51.376;7.148;2024-02-26T04:33:13;4.50;99.90
10278;DHT22;5184;51.376;7.148;2024-02-26T04:35:41;4.50;99.90
10278;DHT22;5184;51.376;7.148;2024-02-26T04:38:08;4.50;99.90
10278;DHT22;5184;51.376;7.148;2024-02-26T04:40:35;4.50;99.90
10278;DHT22;5184;51.376;7.148;2024-02-26T04:43:03;4.50;99.90
10278;DHT22;5184;51.376;7.148;2024-02-26T04:45:29;4.50;99.90
10278;DHT22;5184;51.376;7.148;2024-02-26T04:47:57;4.50;99.90
10278;DHT22;5184;51.376;7.148;2024-02-26T04:50:24;4.50;99.90
10278;DHT22;5184;51.376;7.148;2024-02-26T04:52:51;4.50;99.90
10278;DHT22;5184;51.376;7.148;2024-02-26T04:55:19;4.50;99.90
10278;DHT22;5184;51.376;7.148;2024-02-26T04:57:46;4.40;99.90
10278;DHT22;5184;51.376;7.148;2024-02-26T05:00:14;4.40;99.90
10278;DHT22;5184;51.376;7.148;2024-02-26T05:02:40;4.40;99.90
10278;DHT22;5184;51.376;7.148;2024-02-26T05:05:07;4.40;99.90
10278;DHT22;5184;51.376;7.148;2024-02-26T05:07:39;4.40;99.90
10278;DHT22;5184;51.376;7.148;2024-02-26T05:10:01;4.40;99.90
10278;DHT22;5184;51.376;7.148;2024-02-26T05:12:28;4.40;99.90
10278;DHT22;5184;51.376;7.148;2024-02-26T05:14:54;4.40;99.90
10278;DHT22;5184;51.376;7.148;2024-02-26T05:17:22;4.40;99.90
10278;DHT22;5184;51.376;7.148;2024-02-26T05:19:49;4.30;99.90
10278;DHT22;5184;51.376;7.148;2024-02-26T05:22:16;4.30;99.90
10278;DHT22;5184;51.376;7.148;2024-02-26T05:24:44;4.30;99.90
10278;DHT22;5184;51.376;7.148;2024-02-26T05:27:11;4.30;99.90
10278;DHT22;5184;51.376;7.148;2024-02-26T05:29:38;4.30;99.90
10278;DHT22;5184;51.376;7.148;2024-02-26T05:32:06;4.30;99.90
10278;DHT22;5184;51.376;7.148;2024-02-26T05:34:34;4.30;99.90
10278;DHT22;5184;51.376;7.148;2024-02-26T05:37:02;4.30;99.90
10278;DHT22;5184;51.376;7.148;2024-02-26T05:39:28;4.30;99.90
10278;DHT22;5184;51.376;7.148;2024-02-26T05:41:55;4.30;99.90
10278;DHT22;5184;51.376;7.148;2024-02-26T05:44:22;4.30;99.90
10278;DHT22;5184;51.376;7.148;2024-02-26T05:46:49;4.30;99.90
10278;DHT22;5184;51.376;7.148;2024-02-26T05:49:16;4.30;99.90
10278;DHT22;5184;51.376;7.148;2024-02-26T05:51:43;4.30;99.90
10278;DHT22;5184;51.376;7.148;2024-02-26T05:54:11;4.30;99.90
10278;DHT22;5184;51.376;7.148;2024-02-26T05:56:38;4.30;99.90
10278;DHT22;5184;51.376;7.148;2024-02-26T05:59:05;4.30;99.90
10278;DHT22;5184;51.376;7.148;2024-02-26T06:01:31;4.30;99.90
10278;DHT22;5184;51.376;7.148;2024-02-26T06:03:58;4.30;99.90
10278;DHT22;5184;51.376;7.148;2024-02-26T06:06:24;4.30;99.90
10278;DHT22;5184;51.376;7.148;2024-02-26T06:08:51;4.30;99.90
10278;DHT22;5184;51.376;7.148;2024-02-26T06:11:18;4.30;99.90
10278;DHT22;5184;51.376;7.148;2024-02-26T06:13:44;4.30;99.90
10278;DHT22;5184;51.376;7.148;2024-02-26T06:16:12;4.20;99.90
10278;DHT22;5184;51.376;7.148;2024-02-26T06:18:39;4.30;99.90
10278;DHT22;5184;51.376;7.148;2024-02-26T06:21:09;4.30;99.90
10278;DHT22;5184;51.376;7.148;2024-02-26T06:23:34;4.30;99.90
10278;DHT22;5184;51.376;7.148;2024-02-26T06:26:01;4.30;99.90
10278;DHT22;5184;51.376;7.148;2024-02-26T06:28:28;4.30;99.90
10278;DHT22;5184;51.376;7.148;2024-02-26T06:30:56;4.30;99.90
10278;DHT22;5184;51.376;7.148;2024-02-26T06:33:23;4.30;99.90
10278;DHT22;5184;51.376;7.148;2024-02-26T06:35:50;4.30;99.90
10278;DHT22;5184;51.376;7.148;2024-02-26T06:38:18;4.30;99.90
10278;DHT22;5184;51.376;7.148;2024-02-26T06:40:45;4.30;99.90
10278;DHT22;5184;51.376;7.148;2024-02-26T06:43:12;4.30;99.90
10278;DHT22;5184;51.376;7.148;2024-02-26T06:45:38;4.30;99.90
10278;DHT22;5184;51.376;7.148;2024-02-26T06:48:05;4.40;99.90
10278;DHT22;5184;51.376;7.148;2024-02-26T06:50:32;4.40;99.90
10278;DHT22;5184;51.376;7.148;2024-02-26T06:52:58;4.40;99.90
10278;DHT22;5184;51.376;7.148;2024-02-26T06:55:26;4.30;99.90
10278;DHT22;5184;51.376;7.148;2024-02-26T06:57:53;4.40;99.90
10278;DHT22;5184;51.376;7.148;2024-02-26T07:00:21;4.40;99.90
10278;DHT22;5184;51.376;7.148;2024-02-26T07:02:48;4.40;99.90
10278;DHT22;5184;51.376;7.148;2024-02-26T07:05:15;4.40;99.90
10278;DHT22;5184;51.376;7.148;2024-02-26T07:07:43;4.40;99.90
10278;DHT22;5184;51.376;7.148;2024-02-26T07:10:10;4.40;99.90
10278;DHT22;5184;51.376;7.148;2024-02-26T07:12:37;4.40;99.90
10278;DHT22;5184;51.376;7.148;2024-02-26T07:15:04;4.40;99.90
10278;DHT22;5184;51.376;7.148;2024-02-26T07:17:30;4.40;99.90
10278;DHT22;5184;51.376;7.148;2024-02-26T07:19:57;4.50;99.90
10278;DHT22;5184;51.376;7.148;2024-02-26T07:22:24;4.40;99.90
10278;DHT22;5184;51.376;7.148;2024-02-26T07:24:50;4.50;99.90
10278;DHT22;5184;51.376;7.148;2024-02-26T07:27:18;4.50;99.90
10278;DHT22;5184;51.376;7.148;2024-02-26T07:29:44;4.50;99.90
10278;DHT22;5184;51.376;7.148;2024-02-26T07:32:12;4.60;99.90
10278;DHT22;5184;51.376;7.148;2024-02-26T07:34:39;4.60;99.90
10278;DHT22;5184;51.376;7.148;2024-02-26T07:37:05;4.60;99.90
10278;DHT22;5184;51.376;7.148;2024-02-26T07:39:32;4.70;99.90
10278;DHT22;5184;51.376;7.148;2024-02-26T07:41:59;4.70;99.90
10278;DHT22;5184;51.376;7.148;2024-02-26T07:44:25;4.80;99.90
10278;DHT22;5184;51.376;7.148;2024-02-26T07:46:53;4.80;99.90
10278;DHT22;5184;51.376;7.148;2024-02-26T07:49:19;4.70;99.90
10278;DHT22;5184;51.376;7.148;2024-02-26T07:51:46;4.80;99.90
10278;DHT22;5184;51.376;7.148;2024-02-26T07:54:12;4.80;99.90
10278;DHT22;5184;51.376;7.148;2024-02-26T07:56:40;4.80;99.90
10278;DHT22;5184;51.376;7.148;2024-02-26T07:59:07;4.80;99.90
10278;DHT22;5184;51.376;7.148;2024-02-26T08:01:34;4.90;99.90
10278;DHT22;5184;51.376;7.148;2024-02-26T08:04:02;4.90;99.90
10278;DHT22;5184;51.376;7.148;2024-02-26T08:06:29;4.90;99.90
10278;DHT22;5184;51.376;7.148;2024-02-26T08:08:57;4.90;99.90
10278;DHT22;5184;51.376;7.148;2024-02-26T08:11:24;5.00;99.90
10278;DHT22;5184;51.376;7.148;2024-02-26T08:13:51;5.00;99.90
10278;DHT22;5184;51.376;7.148;2024-02-26T08:16:19;5.00;99.90
10278;DHT22;5184;51.376;7.148;2024-02-26T08:18:46;5.00;99.90
10278;DHT22;5184;51.376;7.148;2024-02-26T08:21:13;5.00;99.90
10278;DHT22;5184;51.376;7.148;2024-02-26T08:23:40;5.00;99.90
10278;DHT22;5184;51.376;7.148;2024-02-26T08:26:06;5.10;99.90
10278;DHT22;5184;51.376;7.148;2024-02-26T08:28:33;5.10;99.90
10278;DHT22;5184;51.376;7.148;2024-02-26T08:31:00;5.10;99.90
10278;DHT22;5184;51.376;7.148;2024-02-26T08:33:26;4.90;99.90
10278;DHT22;5184;51.376;7.148;2024-02-26T08:35:53;5.10;99.90
10278;DHT22;5184;51.376;7.148;2024-02-26T08:38:20;5.10;99.90
10278;DHT22;5184;51.376;7.148;2024-02-26T08:40:47;5.20;99.90
10278;DHT22;5184;51.376;7.148;2024-02-26T08:43:14;5.20;99.90
10278;DHT22;5184;51.376;7.148;2024-02-26T08:45:42;5.20;99.90
10278;DHT22;5184;51.376;7.148;2024-02-26T08:48:09;5.20;99.90
10278;DHT22;5184;51.376;7.148;2024-02-26T08:50:36;5.20;99.90
10278;DHT22;5184;51.376;7.148;2024-02-26T08:53:04;5.30;99.90
10278;DHT22;5184;51.376;7.148;2024-02-26T08:55:30;5.30;99.90
10278;DHT22;5184;51.376;7.148;2024-02-26T08:57:57;5.40;99.90
10278;DHT22;5184;51.376;7.148;2024-02-26T09:00:23;5.40;99.90
10278;DHT22;5184;51.376;7.148;2024-02-26T09:02:50;5.30;99.90
10278;DHT22;5184;51.376;7.148;2024-02-26T09:05:17;5.40;99.90
10278;DHT22;5184;51.376;7.148;2024-02-26T09:07:45;5.40;99.90
10278;DHT22;5184;51.376;7.148;2024-02-26T09:10:12;5.30;99.90
10278;DHT22;5184;51.376;7.148;2024-02-26T09:12:39;5.30;99.90
10278;DHT22;5184;51.376;7.148;2024-02-26T09:15:07;5.30;99.90
10278;DHT22;5184;51.376;7.148;2024-02-26T09:17:34;5.30;99.90
10278;DHT22;5184;51.376;7.148;2024-02-26T09:20:01;5.40;99.90
10278;DHT22;5184;51.376;7.148;2024-02-26T09:22:27;5.30;99.90
10278;DHT22;5184;51.376;7.148;2024-02-26T09:24:53;5.40;99.90
10278;DHT22;5184;51.376;7.148;2024-02-26T09:27:20;5.40;99.90
10278;DHT22;5184;51.376;7.148;2024-02-26T09:29:47;5.50;99.90
10278;DHT22;5184;51.376;7.148;2024-02-26T09:32:13;5.60;99.90
10278;DHT22;5184;51.376;7.148;2024-02-26T09:34:40;5.60;99.90
10278;DHT22;5184;51.376;7.148;2024-02-26T09:37:07;5.50;99.90
10278;DHT22;5184;51.376;7.148;2024-02-26T09:39:35;5.50;99.90
10278;DHT22;5184;51.376;7.148;2024-02-26T09:42:01;5.50;99.90
10278;DHT22;5184;51.376;7.148;2024-02-26T09:44:28;5.60;99.90
10278;DHT22;5184;51.376;7.148;2024-02-26T09:46:55;5.60;99.90
10278;DHT22;5184;51.376;7.148;2024-02-26T09:49:23;5.60;99.90
10278;DHT22;5184;51.376;7.148;2024-02-26T09:51:50;5.70;99.90
10278;DHT22;5184;51.376;7.148;2024-02-26T09:54:17;5.70;99.90
10278;DHT22;5184;51.376;7.148;2024-02-26T09:56:44;5.60;99.90
10278;DHT22;5184;51.376;7.148;2024-02-26T09:59:13;5.70;99.90
10278;DHT22;5184;51.376;7.148;2024-02-26T10:01:37;5.70;99.90
10278;DHT22;5184;51.376;7.148;2024-02-26T10:04:04;5.70;99.90
10278;DHT22;5184;51.376;7.148;2024-02-26T10:06:31;5.70;99.90
10278;DHT22;5184;51.376;7.148;2024-02-26T10:08:57;5.70;99.90
10278;DHT22;5184;51.376;7.148;2024-02-26T10:11:25;5.70;99.90
10278;DHT22;5184;51.376;7.148;2024-02-26T10:13:51;5.70;99.90
10278;DHT22;5184;51.376;7.148;2024-02-26T10:16:19;5.70;99.90
10278;DHT22;5184;51.376;7.148;2024-02-26T10:18:48;5.70;99.90
10278;DHT22;5184;51.376;7.148;2024-02-26T10:21:17;5.70;99.90
10278;DHT22;5184;51.376;7.148;2024-02-26T10:23:44;5.70;99.90
10278;DHT22;5184;51.376;7.148;2024-02-26T10:26:10;5.70;99.90
10278;DHT22;5184;51.376;7.148;2024-02-26T10:28:39;5.80;99.90
10278;DHT22;5184;51.376;7.148;2024-02-26T10:31:06;5.90;99.90
10278;DHT22;5184;51.376;7.148;2024-02-26T10:33:34;5.80;99.90
10278;DHT22;5184;51.376;7.148;2024-02-26T10:36:00;5.90;99.90
10278;DHT22;5184;51.376;7.148;2024-02-26T10:38:27;5.90;99.90
10278;DHT22;5184;51.376;7.148;2024-02-26T10:40:55;6.00;99.90
10278;DHT22;5184;51.376;7.148;2024-02-26T10:43:22;5.90;99.90
10278;DHT22;5184;51.376;7.148;2024-02-26T10:45:50;5.90;99.90
10278;DHT22;5184;51.376;7.148;2024-02-26T10:48:17;6.00;99.90
10278;DHT22;5184;51.376;7.148;2024-02-26T10:50:44;6.00;99.90
10278;DHT22;5184;51.376;7.148;2024-02-26T10:53:16;5.90;99.90
10278;DHT22;5184;51.376;7.148;2024-02-26T10:55:40;5.90;99.90
10278;DHT22;5184;51.376;7.148;2024-02-26T10:58:07;5.90;99.90
10278;DHT22;5184;51.376;7.148;2024-02-26T11:00:34;6.00;99.90
10278;DHT22;5184;51.376;7.148;2024-02-26T11:03:02;5.90;99.90
10278;DHT22;5184;51.376;7.148;2024-02-26T11:05:29;5.90;99.90
10278;DHT22;5184;51.376;7.148;2024-02-26T11:07:56;6.00;99.90
10278;DHT22;5184;51.376;7.148;2024-02-26T11:10:23;6.00;99.90
10278;DHT22;5184;51.376;7.148;2024-02-26T11:12:51;6.10;99.90
10278;DHT22;5184;51.376;7.148;2024-02-26T11:15:18;6.20;99.90
10278;DHT22;5184;51.376;7.148;2024-02-26T11:17:46;6.30;99.90
10278;DHT22;5184;51.376;7.148;2024-02-26T11:20:12;6.30;99.90
10278;DHT22;5184;51.376;7.148;2024-02-26T11:22:39;6.30;99.90
10278;DHT22;5184;51.376;7.148;2024-02-26T11:25:05;6.40;99.90
10278;DHT22;5184;51.376;7.148;2024-02-26T11:27:35;6.40;99.90
10278;DHT22;5184;51.376;7.148;2024-02-26T11:30:00;6.50;99.90
10278;DHT22;5184;51.376;7.148;2024-02-26T11:32:27;6.60;99.90
10278;DHT22;5184;51.376;7.148;2024-02-26T11:34:54;6.60;99.90
10278;DHT22;5184;51.376;7.148;2024-02-26T11:37:22;6.70;99.90
10278;DHT22;5184;51.376;7.148;2024-02-26T11:39:49;6.80;99.90
10278;DHT22;5184;51.376;7.148;2024-02-26T11:42:16;6.80;99.90
10278;DHT22;5184;51.376;7.148;2024-02-26T11:44:42;6.80;99.90
10278;DHT22;5184;51.376;7.148;2024-02-26T11:47:12;7.00;99.90
10278;DHT22;5184;51.376;7.148;2024-02-26T11:49:38;7.10;99.90
10278;DHT22;5184;51.376;7.148;2024-02-26T11:52:05;7.00;99.90
10278;DHT22;5184;51.376;7.148;2024-02-26T11:54:43;7.00;99.90
10278;DHT22;5184;51.376;7.148;2024-02-26T11:57:26;7.10;99.90
10278;DHT22;5184;51.376;7.148;2024-02-26T11:59:52;8.00;99.90
10278;DHT22;5184;51.376;7.148;2024-02-26T12:04:56;7.30;99.90
10278;DHT22;5184;51.376;7.148;2024-02-26T12:07:24;7.40;99.90
10278;DHT22;5184;51.376;7.148;2024-02-26T12:09:51;7.60;99.90
10278;DHT22;5184;51.376;7.148;2024-02-26T12:12:18;7.60;99.90
10278;DHT22;5184;51.376;7.148;2024-02-26T12:14:51;7.70;99.90
10278;DHT22;5184;51.376;7.148;2024-02-26T12:17:20;7.70;99.90
10278;DHT22;5184;51.376;7.148;2024-02-26T12:19:46;7.90;99.90
10278;DHT22;5184;51.376;7.148;2024-02-26T12:22:13;7.90;99.90
10278;DHT22;5184;51.376;7.148;2024-02-26T12:24:40;8.00;99.90
10278;DHT22;5184;51.376;7.148;2024-02-26T12:27:06;8.00;99.90
10278;DHT22;5184;51.376;7.148;2024-02-26T12:29:33;7.90;99.90
10278;DHT22;5184;51.376;7.148;2024-02-26T12:32:00;7.90;99.90
10278;DHT22;5184;51.376;7.148;2024-02-26T12:34:26;7.80;99.90
10278;DHT22;5184;51.376;7.148;2024-02-26T12:36:53;7.70;99.90
10278;DHT22;5184;51.376;7.148;2024-02-26T12:39:20;7.70;99.90
10278;DHT22;5184;51.376;7.148;2024-02-26T12:41:47;7.60;99.90
10278;DHT22;5184;51.376;7.148;2024-02-26T12:44:17;7.70;99.90
10278;DHT22;5184;51.376;7.148;2024-02-26T12:46:43;7.60;99.90
10278;DHT22;5184;51.376;7.148;2024-02-26T12:49:17;7.60;99.90
10278;DHT22;5184;51.376;7.148;2024-02-26T12:51:44;7.60;99.90
10278;DHT22;5184;51.376;7.148;2024-02-26T12:54:11;7.50;99.90
10278;DHT22;5184;51.376;7.148;2024-02-26T12:56:39;7.50;99.90
10278;DHT22;5184;51.376;7.148;2024-02-26T12:59:05;7.50;99.90
10278;DHT22;5184;51.376;7.148;2024-02-26T13:01:32;7.60;99.90
10278;DHT22;5184;51.376;7.148;2024-02-26T13:03:58;7.60;99.90
10278;DHT22;5184;51.376;7.148;2024-02-26T13:06:25;7.60;99.90
10278;DHT22;5184;51.376;7.148;2024-02-26T13:08:56;7.60;99.90
10278;DHT22;5184;51.376;7.148;2024-02-26T13:11:20;7.70;99.90
10278;DHT22;5184;51.376;7.148;2024-02-26T13:13:48;7.80;99.90
10278;DHT22;5184;51.376;7.148;2024-02-26T13:16:15;7.70;99.90
10278;DHT22;5184;51.376;7.148;2024-02-26T13:18:42;7.80;99.90
10278;DHT22;5184;51.376;7.148;2024-02-26T13:21:10;7.90;99.90
10278;DHT22;5184;51.376;7.148;2024-02-26T13:23:38;7.80;99.90
10278;DHT22;5184;51.376;7.148;2024-02-26T13:26:05;7.90;99.90
10278;DHT22;5184;51.376;7.148;2024-02-26T13:28:32;7.90;99.90
10278;DHT22;5184;51.376;7.148;2024-02-26T13:30:59;7.90;99.90
10278;DHT22;5184;51.376;7.148;2024-02-26T13:33:27;7.80;99.90
10278;DHT22;5184;51.376;7.148;2024-02-26T13:35:55;7.80;99.90
10278;DHT22;5184;51.376;7.148;2024-02-26T13:38:22;7.80;99.90
10278;DHT22;5184;51.376;7.148;2024-02-26T13:40:50;7.70;99.90
10278;DHT22;5184;51.376;7.148;2024-02-26T13:43:17;7.70;99.90
10278;DHT22;5184;51.376;7.148;2024-02-26T13:45:43;7.70;99.90
10278;DHT22;5184;51.376;7.148;2024-02-26T13:48:10;7.90;99.90
10278;DHT22;5184;51.376;7.148;2024-02-26T13:50:38;7.90;99.90
10278;DHT22;5184;51.376;7.148;2024-02-26T13:53:05;7.90;99.90
10278;DHT22;5184;51.376;7.148;2024-02-26T13:55:32;8.00;99.90
10278;DHT22;5184;51.376;7.148;2024-02-26T13:58:00;8.00;99.90
10278;DHT22;5184;51.376;7.148;2024-02-26T14:00:27;8.00;99.90
10278;DHT22;5184;51.376;7.148;2024-02-26T14:02:54;8.00;99.90
10278;DHT22;5184;51.376;7.148;2024-02-26T14:05:20;7.90;99.90
10278;DHT22;5184;51.376;7.148;2024-02-26T14:07:47;8.00;99.90
10278;DHT22;5184;51.376;7.148;2024-02-26T14:10:13;7.90;99.90
10278;DHT22;5184;51.376;7.148;2024-02-26T14:12:40;7.90;99.90
10278;DHT22;5184;51.376;7.148;2024-02-26T14:15:07;7.90;99.90
10278;DHT22;5184;51.376;7.148;2024-02-26T14:17:34;7.90;99.90
10278;DHT22;5184;51.376;7.148;2024-02-26T14:20:00;7.90;99.90
10278;DHT22;5184;51.376;7.148;2024-02-26T14:22:28;7.90;99.90
10278;DHT22;5184;51.376;7.148;2024-02-26T14:24:55;7.90;99.90
10278;DHT22;5184;51.376;7.148;2024-02-26T14:27:22;7.90;99.90
10278;DHT22;5184;51.376;7.148;2024-02-26T14:29:50;7.90;99.90
10278;DHT22;5184;51.376;7.148;2024-02-26T14:32:16;7.90;99.90
10278;DHT22;5184;51.376;7.148;2024-02-26T14:34:43;7.90;99.90
10278;DHT22;5184;51.376;7.148;2024-02-26T14:37:09;8.00;99.90
10278;DHT22;5184;51.376;7.148;2024-02-26T14:39:37;7.90;99.90
10278;DHT22;5184;51.376;7.148;2024-02-26T14:42:03;8.00;99.90
10278;DHT22;5184;51.376;7.148;2024-02-26T14:44:29;7.90;99.90
10278;DHT22;5184;51.376;7.148;2024-02-26T14:46:56;7.80;99.90
10278;DHT22;5184;51.376;7.148;2024-02-26T14:49:22;7.80;99.90
10278;DHT22;5184;51.376;7.148;2024-02-26T14:51:49;7.80;99.90
10278;DHT22;5184;51.376;7.148;2024-02-26T14:54:16;7.90;99.90
10278;DHT22;5184;51.376;7.148;2024-02-26T14:56:42;8.00;99.90
10278;DHT22;5184;51.376;7.148;2024-02-26T14:59:09;8.00;99.90
10278;DHT22;5184;51.376;7.148;2024-02-26T15:01:36;8.10;99.90
10278;DHT22;5184;51.376;7.148;2024-02-26T15:04:04;8.10;99.90
10278;DHT22;5184;51.376;7.148;2024-02-26T15:06:30;8.10;99.90
10278;DHT22;5184;51.376;7.148;2024-02-26T15:08:58;8.00;99.90
10278;DHT22;5184;51.376;7.148;2024-02-26T15:11:25;8.00;99.90
10278;DHT22;5184;51.376;7.148;2024-02-26T15:13:52;8.10;99.90
10278;DHT22;5184;51.376;7.148;2024-02-26T15:16:19;8.10;99.90
10278;DHT22;5184;51.376;7.148;2024-02-26T15:18:46;8.10;99.90
10278;DHT22;5184;51.376;7.148;2024-02-26T15:21:12;8.10;99.90
10278;DHT22;5184;51.376;7.148;2024-02-26T15:23:40;8.00;99.90
10278;DHT22;5184;51.376;7.148;2024-02-26T15:26:07;8.00;99.90
10278;DHT22;5184;51.376;7.148;2024-02-26T15:28:34;7.90;99.90
10278;DHT22;5184;51.376;7.148;2024-02-26T15:31:02;7.90;99.90
10278;DHT22;5184;51.376;7.148;2024-02-26T15:33:29;7.80;99.90
10278;DHT22;5184;51.376;7.148;2024-02-26T15:35:56;7.80;99.90
10278;DHT22;5184;51.376;7.148;2024-02-26T15:38:22;7.80;99.90
10278;DHT22;5184;51.376;7.148;2024-02-26T15:40:49;7.80;99.90
10278;DHT22;5184;51.376;7.148;2024-02-26T15:43:15;7.70;99.90
10278;DHT22;5184;51.376;7.148;2024-02-26T15:45:42;7.70;99.90
10278;DHT22;5184;51.376;7.148;2024-02-26T15:48:09;7.60;99.90
10278;DHT22;5184;51.376;7.148;2024-02-26T15:50:36;7.60;99.90
10278;DHT22;5184;51.376;7.148;2024-02-26T15:53:03;7.60;99.90
10278;DHT22;5184;51.376;7.148;2024-02-26T15:55:31;7.50;99.90
10278;DHT22;5184;51.376;7.148;2024-02-26T15:57:57;7.50;99.90
10278;DHT22;5184;51.376;7.148;2024-02-26T16:00:24;7.50;99.90
10278;DHT22;5184;51.376;7.148;2024-02-26T16:02:50;7.40;99.90